sensor_id;sensor_type;location;lat;lon;timestamp;P1;durP1;ratioP1;P2;durP2;ratioP2
23206;SDS011;11773;52.570;13.052;2023-03-13T00:00:14;1.50;;;0.80;;
23206;SDS011;11773;52.570;13.052;2023-03-13T00:02:44;0.80;;;0.80;;
23206;SDS011;11773;52.570;13.052;2023-03-13T00:05:13;0.93;;;0.80;;
23206;SDS011;11773;52.570;13.052;2023-03-13T00:07:43;0.80;;;0.70;;
23206;SDS011;11773;52.570;13.052;2023-03-13T00:10:12;0.70;;;0.70;;
23206;SDS011;11773;52.570;13.052;2023-03-13T00:12:42;1.17;;;0.80;;
23206;SDS011;11773;52.570;13.052;2023-03-13T00:15:17;1.10;;;0.60;;
23206;SDS011;11773;52.570;13.052;2023-03-13T00:17:47;0.90;;;0.80;;
23206;SDS011;11773;52.570;13.052;2023-03-13T00:20:16;1.07;;;0.80;;
23206;SDS011;11773;52.570;13.052;2023-03-13T00:22:46;0.53;;;0.50;;
23206;SDS011;11773;52.570;13.052;2023-03-13T00:25:15;1.37;;;0.90;;
23206;SDS011;11773;52.570;13.052;2023-03-13T00:27:45;0.70;;;0.70;;
23206;SDS011;11773;52.570;13.052;2023-03-13T00:30:15;1.20;;;0.87;;
23206;SDS011;11773;52.570;13.052;2023-03-13T00:32:45;0.40;;;0.40;;
23206;SDS011;11773;52.570;13.052;2023-03-13T00:35:15;0.73;;;0.47;;
23206;SDS011;11773;52.570;13.052;2023-03-13T00:37:44;0.77;;;0.70;;
23206;SDS011;11773;52.570;13.052;2023-03-13T00:40:13;0.73;;;0.63;;
23206;SDS011;11773;52.570;13.052;2023-03-13T00:42:43;1.03;;;0.70;;
23206;SDS011;11773;52.570;13.052;2023-03-13T00:45:13;1.03;;;0.97;;
23206;SDS011;11773;52.570;13.052;2023-03-13T00:47:42;1.23;;;0.70;;
23206;SDS011;11773;52.570;13.052;2023-03-13T00:50:12;1.53;;;0.77;;
23206;SDS011;11773;52.570;13.052;2023-03-13T00:52:41;0.83;;;0.73;;
23206;SDS011;11773;52.570;13.052;2023-03-13T00:55:10;1.47;;;0.97;;
23206;SDS011;11773;52.570;13.052;2023-03-13T00:57:40;0.80;;;0.73;;
23206;SDS011;11773;52.570;13.052;2023-03-13T01:00:10;1.03;;;0.80;;
23206;SDS011;11773;52.570;13.052;2023-03-13T01:02:42;0.60;;;0.60;;
23206;SDS011;11773;52.570;13.052;2023-03-13T01:05:11;1.10;;;1.00;;
23206;SDS011;11773;52.570;13.052;2023-03-13T01:07:41;1.00;;;0.90;;
23206;SDS011;11773;52.570;13.052;2023-03-13T01:10:10;0.70;;;0.70;;
23206;SDS011;11773;52.570;13.052;2023-03-13T01:12:40;0.63;;;0.60;;
23206;SDS011;11773;52.570;13.052;2023-03-13T01:15:09;0.60;;;0.60;;
23206;SDS011;11773;52.570;13.052;2023-03-13T01:17:39;1.47;;;0.90;;
23206;SDS011;11773;52.570;13.052;2023-03-13T01:20:11;1.37;;;0.80;;
23206;SDS011;11773;52.570;13.052;2023-03-13T01:22:41;1.53;;;1.07;;
23206;SDS011;11773;52.570;13.052;2023-03-13T01:25:10;0.80;;;0.77;;
23206;SDS011;11773;52.570;13.052;2023-03-13T01:27:39;1.03;;;0.77;;
23206;SDS011;11773;52.570;13.052;2023-03-13T01:30:09;1.17;;;0.73;;
23206;SDS011;11773;52.570;13.052;2023-03-13T01:32:39;0.70;;;0.70;;
23206;SDS011;11773;52.570;13.052;2023-03-13T01:35:09;1.17;;;0.93;;
23206;SDS011;11773;52.570;13.052;2023-03-13T01:37:38;0.80;;;0.60;;
23206;SDS011;11773;52.570;13.052;2023-03-13T01:40:08;1.23;;;0.90;;
23206;SDS011;11773;52.570;13.052;2023-03-13T01:42:53;1.60;;;1.10;;
23206;SDS011;11773;52.570;13.052;2023-03-13T01:48:29;2.13;;;1.50;;
23206;SDS011;11773;52.570;13.052;2023-03-13T01:51:06;1.50;;;1.40;;
23206;SDS011;11773;52.570;13.052;2023-03-13T01:53:41;1.77;;;1.30;;
23206;SDS011;11773;52.570;13.052;2023-03-13T01:56:23;1.60;;;1.30;;
23206;SDS011;11773;52.570;13.052;2023-03-13T01:58:57;1.50;;;1.30;;
23206;SDS011;11773;52.570;13.052;2023-03-13T02:01:29;1.60;;;1.20;;
23206;SDS011;11773;52.570;13.052;2023-03-13T02:04:00;1.60;;;1.10;;
23206;SDS011;11773;52.570;13.052;2023-03-13T02:06:30;1.50;;;0.90;;
23206;SDS011;11773;52.570;13.052;2023-03-13T02:09:05;1.10;;;1.00;;
23206;SDS011;11773;52.570;13.052;2023-03-13T02:11:43;1.30;;;1.10;;
23206;SDS011;11773;52.570;13.052;2023-03-13T02:14:21;0.80;;;0.70;;
23206;SDS011;11773;52.570;13.052;2023-03-13T02:16:54;1.03;;;0.80;;
23206;SDS011;11773;52.570;13.052;2023-03-13T02:19:29;1.23;;;1.00;;
23206;SDS011;11773;52.570;13.052;2023-03-13T02:22:27;0.70;;;0.70;;
23206;SDS011;11773;52.570;13.052;2023-03-13T02:28:21;1.00;;;0.90;;
23206;SDS011;11773;52.570;13.052;2023-03-13T02:30:54;1.53;;;1.13;;
23206;SDS011;11773;52.570;13.052;2023-03-13T02:33:29;2.20;;;1.03;;
23206;SDS011;11773;52.570;13.052;2023-03-13T02:36:02;1.57;;;0.83;;
23206;SDS011;11773;52.570;13.052;2023-03-13T02:38:36;0.97;;;0.87;;
23206;SDS011;11773;52.570;13.052;2023-03-13T02:41:10;1.87;;;1.33;;
23206;SDS011;11773;52.570;13.052;2023-03-13T02:43:41;1.60;;;1.00;;
23206;SDS011;11773;52.570;13.052;2023-03-13T02:46:12;1.63;;;1.10;;
23206;SDS011;11773;52.570;13.052;2023-03-13T02:48:46;1.53;;;0.90;;
23206;SDS011;11773;52.570;13.052;2023-03-13T02:51:35;1.20;;;1.00;;
23206;SDS011;11773;52.570;13.052;2023-03-13T02:54:08;0.90;;;0.73;;
23206;SDS011;11773;52.570;13.052;2023-03-13T02:56:42;1.23;;;0.97;;
23206;SDS011;11773;52.570;13.052;2023-03-13T02:59:15;1.10;;;0.80;;
23206;SDS011;11773;52.570;13.052;2023-03-13T03:01:44;2.13;;;0.97;;
23206;SDS011;11773;52.570;13.052;2023-03-13T03:04:16;2.07;;;1.20;;
23206;SDS011;11773;52.570;13.052;2023-03-13T03:06:50;1.73;;;1.20;;
23206;SDS011;11773;52.570;13.052;2023-03-13T03:09:20;1.30;;;0.90;;
23206;SDS011;11773;52.570;13.052;2023-03-13T03:11:52;1.70;;;1.00;;
23206;SDS011;11773;52.570;13.052;2023-03-13T03:14:21;1.37;;;0.90;;
23206;SDS011;11773;52.570;13.052;2023-03-13T03:16:50;1.20;;;0.70;;
23206;SDS011;11773;52.570;13.052;2023-03-13T03:19:20;1.67;;;0.90;;
23206;SDS011;11773;52.570;13.052;2023-03-13T03:21:49;2.40;;;0.97;;
23206;SDS011;11773;52.570;13.052;2023-03-13T03:24:19;1.37;;;0.70;;
23206;SDS011;11773;52.570;13.052;2023-03-13T03:26:48;0.83;;;0.80;;
23206;SDS011;11773;52.570;13.052;2023-03-13T03:29:18;1.90;;;0.93;;
23206;SDS011;11773;52.570;13.052;2023-03-13T03:31:47;3.13;;;1.07;;
23206;SDS011;11773;52.570;13.052;2023-03-13T03:34:17;1.53;;;0.80;;
23206;SDS011;11773;52.570;13.052;2023-03-13T03:36:46;0.67;;;0.67;;
23206;SDS011;11773;52.570;13.052;2023-03-13T03:39:16;1.53;;;1.00;;
23206;SDS011;11773;52.570;13.052;2023-03-13T03:41:45;2.77;;;1.47;;
23206;SDS011;11773;52.570;13.052;2023-03-13T03:44:15;1.87;;;1.50;;
23206;SDS011;11773;52.570;13.052;2023-03-13T03:46:44;1.47;;;0.80;;
23206;SDS011;11773;52.570;13.052;2023-03-13T03:49:14;3.50;;;1.00;;
23206;SDS011;11773;52.570;13.052;2023-03-13T03:51:43;2.07;;;1.00;;
23206;SDS011;11773;52.570;13.052;2023-03-13T03:54:12;1.40;;;0.80;;
23206;SDS011;11773;52.570;13.052;2023-03-13T03:56:42;2.80;;;0.90;;
23206;SDS011;11773;52.570;13.052;2023-03-13T03:59:11;2.53;;;1.00;;
23206;SDS011;11773;52.570;13.052;2023-03-13T04:01:41;1.87;;;1.00;;
23206;SDS011;11773;52.570;13.052;2023-03-13T04:04:10;2.10;;;1.20;;
23206;SDS011;11773;52.570;13.052;2023-03-13T04:06:40;3.30;;;1.57;;
23206;SDS011;11773;52.570;13.052;2023-03-13T04:09:09;2.30;;;1.30;;
23206;SDS011;11773;52.570;13.052;2023-03-13T04:11:39;2.00;;;1.27;;
23206;SDS011;11773;52.570;13.052;2023-03-13T04:14:08;1.77;;;0.80;;
23206;SDS011;11773;52.570;13.052;2023-03-13T04:16:38;1.43;;;0.73;;
23206;SDS011;11773;52.570;13.052;2023-03-13T04:19:07;1.70;;;0.90;;
23206;SDS011;11773;52.570;13.052;2023-03-13T04:21:37;2.23;;;1.23;;
23206;SDS011;11773;52.570;13.052;2023-03-13T04:24:06;3.40;;;1.10;;
23206;SDS011;11773;52.570;13.052;2023-03-13T04:26:36;2.30;;;1.27;;
23206;SDS011;11773;52.570;13.052;2023-03-13T04:29:05;1.30;;;0.87;;
23206;SDS011;11773;52.570;13.052;2023-03-13T04:31:35;0.80;;;0.77;;
23206;SDS011;11773;52.570;13.052;2023-03-13T04:34:04;1.63;;;0.93;;
23206;SDS011;11773;52.570;13.052;2023-03-13T04:36:33;2.33;;;1.10;;
23206;SDS011;11773;52.570;13.052;2023-03-13T04:39:03;1.53;;;1.23;;
23206;SDS011;11773;52.570;13.052;2023-03-13T04:41:32;1.43;;;0.80;;
23206;SDS011;11773;52.570;13.052;2023-03-13T04:44:02;1.70;;;1.10;;
23206;SDS011;11773;52.570;13.052;2023-03-13T04:46:32;2.93;;;1.40;;
23206;SDS011;11773;52.570;13.052;2023-03-13T04:49:01;2.47;;;1.47;;
23206;SDS011;11773;52.570;13.052;2023-03-13T04:51:32;2.00;;;0.83;;
23206;SDS011;11773;52.570;13.052;2023-03-13T04:54:02;2.20;;;0.97;;
23206;SDS011;11773;52.570;13.052;2023-03-13T04:56:31;2.23;;;1.00;;
23206;SDS011;11773;52.570;13.052;2023-03-13T04:59:02;1.03;;;0.80;;
23206;SDS011;11773;52.570;13.052;2023-03-13T05:01:32;0.53;;;0.53;;
23206;SDS011;11773;52.570;13.052;2023-03-13T05:04:02;2.90;;;1.10;;
23206;SDS011;11773;52.570;13.052;2023-03-13T05:06:32;2.53;;;1.00;;
23206;SDS011;11773;52.570;13.052;2023-03-13T05:09:02;2.37;;;1.40;;
23206;SDS011;11773;52.570;13.052;2023-03-13T05:11:33;2.00;;;1.30;;
23206;SDS011;11773;52.570;13.052;2023-03-13T05:14:02;3.47;;;1.40;;
23206;SDS011;11773;52.570;13.052;2023-03-13T05:16:32;3.63;;;1.10;;
23206;SDS011;11773;52.570;13.052;2023-03-13T05:19:01;2.07;;;0.90;;
23206;SDS011;11773;52.570;13.052;2023-03-13T05:21:31;3.70;;;1.70;;
23206;SDS011;11773;52.570;13.052;2023-03-13T05:24:00;1.63;;;0.87;;
23206;SDS011;11773;52.570;13.052;2023-03-13T05:26:29;1.93;;;0.83;;
23206;SDS011;11773;52.570;13.052;2023-03-13T05:28:59;1.77;;;0.93;;
23206;SDS011;11773;52.570;13.052;2023-03-13T05:31:28;1.23;;;0.60;;
23206;SDS011;11773;52.570;13.052;2023-03-13T05:33:58;1.63;;;0.50;;
23206;SDS011;11773;52.570;13.052;2023-03-13T05:36:27;1.73;;;1.00;;
23206;SDS011;11773;52.570;13.052;2023-03-13T05:38:57;1.47;;;0.90;;
23206;SDS011;11773;52.570;13.052;2023-03-13T05:41:26;2.23;;;1.30;;
23206;SDS011;11773;52.570;13.052;2023-03-13T05:43:56;2.20;;;0.80;;
23206;SDS011;11773;52.570;13.052;2023-03-13T05:46:31;0.97;;;0.70;;
23206;SDS011;11773;52.570;13.052;2023-03-13T05:48:56;0.80;;;0.57;;
23206;SDS011;11773;52.570;13.052;2023-03-13T05:51:26;1.57;;;1.03;;
23206;SDS011;11773;52.570;13.052;2023-03-13T05:53:55;1.03;;;0.67;;
23206;SDS011;11773;52.570;13.052;2023-03-13T05:56:25;1.70;;;1.07;;
23206;SDS011;11773;52.570;13.052;2023-03-13T05:58:54;5.10;;;1.30;;
23206;SDS011;11773;52.570;13.052;2023-03-13T06:01:24;1.22;;;0.70;;
23206;SDS011;11773;52.570;13.052;2023-03-13T06:03:53;2.70;;;1.00;;
23206;SDS011;11773;52.570;13.052;2023-03-13T06:06:23;1.07;;;0.83;;
23206;SDS011;11773;52.570;13.052;2023-03-13T06:08:53;2.13;;;1.03;;
23206;SDS011;11773;52.570;13.052;2023-03-13T06:11:22;2.43;;;1.10;;
23206;SDS011;11773;52.570;13.052;2023-03-13T06:13:52;2.57;;;1.17;;
23206;SDS011;11773;52.570;13.052;2023-03-13T06:16:21;1.87;;;0.83;;
23206;SDS011;11773;52.570;13.052;2023-03-13T06:18:51;1.83;;;0.90;;
23206;SDS011;11773;52.570;13.052;2023-03-13T06:21:20;2.43;;;1.17;;
23206;SDS011;11773;52.570;13.052;2023-03-13T06:23:50;1.97;;;1.20;;
23206;SDS011;11773;52.570;13.052;2023-03-13T06:26:20;2.50;;;1.53;;
23206;SDS011;11773;52.570;13.052;2023-03-13T06:28:51;2.87;;;1.57;;
23206;SDS011;11773;52.570;13.052;2023-03-13T06:31:21;4.30;;;1.47;;
23206;SDS011;11773;52.570;13.052;2023-03-13T06:33:54;2.33;;;1.13;;
23206;SDS011;11773;52.570;13.052;2023-03-13T06:36:24;1.93;;;1.20;;
23206;SDS011;11773;52.570;13.052;2023-03-13T06:38:54;5.17;;;2.00;;
23206;SDS011;11773;52.570;13.052;2023-03-13T06:41:23;3.50;;;1.40;;
23206;SDS011;11773;52.570;13.052;2023-03-13T06:43:53;2.43;;;1.20;;
23206;SDS011;11773;52.570;13.052;2023-03-13T06:46:23;1.53;;;0.93;;
23206;SDS011;11773;52.570;13.052;2023-03-13T06:48:53;2.00;;;0.83;;
23206;SDS011;11773;52.570;13.052;2023-03-13T06:51:22;2.13;;;1.00;;
23206;SDS011;11773;52.570;13.052;2023-03-13T06:53:52;1.47;;;1.10;;
23206;SDS011;11773;52.570;13.052;2023-03-13T06:56:21;1.07;;;0.70;;
23206;SDS011;11773;52.570;13.052;2023-03-13T06:58:51;2.17;;;1.07;;
23206;SDS011;11773;52.570;13.052;2023-03-13T07:01:21;2.70;;;1.20;;
23206;SDS011;11773;52.570;13.052;2023-03-13T07:03:50;1.53;;;1.10;;
23206;SDS011;11773;52.570;13.052;2023-03-13T07:06:20;1.37;;;0.90;;
23206;SDS011;11773;52.570;13.052;2023-03-13T07:08:49;3.13;;;1.20;;
23206;SDS011;11773;52.570;13.052;2023-03-13T07:11:19;5.33;;;1.90;;
23206;SDS011;11773;52.570;13.052;2023-03-13T07:13:48;2.63;;;1.70;;
23206;SDS011;11773;52.570;13.052;2023-03-13T07:16:21;3.90;;;1.40;;
23206;SDS011;11773;52.570;13.052;2023-03-13T07:18:50;2.20;;;1.03;;
23206;SDS011;11773;52.570;13.052;2023-03-13T07:21:20;1.97;;;1.00;;
23206;SDS011;11773;52.570;13.052;2023-03-13T07:23:49;2.70;;;1.00;;
23206;SDS011;11773;52.570;13.052;2023-03-13T07:26:19;1.73;;;1.00;;
23206;SDS011;11773;52.570;13.052;2023-03-13T07:28:48;2.13;;;1.40;;
23206;SDS011;11773;52.570;13.052;2023-03-13T07:31:18;4.77;;;1.70;;
23206;SDS011;11773;52.570;13.052;2023-03-13T07:33:52;2.17;;;1.30;;
23206;SDS011;11773;52.570;13.052;2023-03-13T07:36:23;5.03;;;1.53;;
23206;SDS011;11773;52.570;13.052;2023-03-13T07:38:53;2.73;;;1.27;;
23206;SDS011;11773;52.570;13.052;2023-03-13T07:41:22;2.33;;;1.30;;
23206;SDS011;11773;52.570;13.052;2023-03-13T07:43:52;3.17;;;1.90;;
23206;SDS011;11773;52.570;13.052;2023-03-13T07:46:21;2.50;;;1.50;;
23206;SDS011;11773;52.570;13.052;2023-03-13T07:48:51;2.77;;;1.20;;
23206;SDS011;11773;52.570;13.052;2023-03-13T07:51:22;1.60;;;0.93;;
23206;SDS011;11773;52.570;13.052;2023-03-13T07:53:55;1.13;;;0.80;;
23206;SDS011;11773;52.570;13.052;2023-03-13T07:56:25;2.53;;;1.20;;
23206;SDS011;11773;52.570;13.052;2023-03-13T07:58:54;4.23;;;1.57;;
23206;SDS011;11773;52.570;13.052;2023-03-13T08:01:25;3.27;;;1.30;;
23206;SDS011;11773;52.570;13.052;2023-03-13T08:03:56;2.50;;;1.37;;
23206;SDS011;11773;52.570;13.052;2023-03-13T08:06:29;3.67;;;1.70;;
23206;SDS011;11773;52.570;13.052;2023-03-13T08:09:05;2.47;;;1.27;;
23206;SDS011;11773;52.570;13.052;2023-03-13T08:11:36;2.53;;;1.30;;
23206;SDS011;11773;52.570;13.052;2023-03-13T08:14:08;1.70;;;0.93;;
23206;SDS011;11773;52.570;13.052;2023-03-13T08:16:38;3.73;;;1.50;;
23206;SDS011;11773;52.570;13.052;2023-03-13T08:19:08;4.83;;;1.20;;
23206;SDS011;11773;52.570;13.052;2023-03-13T08:21:38;2.90;;;1.63;;
23206;SDS011;11773;52.570;13.052;2023-03-13T08:24:07;2.23;;;1.20;;
23206;SDS011;11773;52.570;13.052;2023-03-13T08:26:39;3.03;;;1.33;;
23206;SDS011;11773;52.570;13.052;2023-03-13T08:29:10;2.50;;;1.30;;
23206;SDS011;11773;52.570;13.052;2023-03-13T08:31:45;1.80;;;0.90;;
23206;SDS011;11773;52.570;13.052;2023-03-13T08:34:18;2.13;;;1.27;;
23206;SDS011;11773;52.570;13.052;2023-03-13T08:36:48;2.43;;;1.13;;
23206;SDS011;11773;52.570;13.052;2023-03-13T08:39:19;1.70;;;1.00;;
23206;SDS011;11773;52.570;13.052;2023-03-13T08:41:49;1.77;;;1.13;;
23206;SDS011;11773;52.570;13.052;2023-03-13T08:44:18;1.73;;;1.10;;
23206;SDS011;11773;52.570;13.052;2023-03-13T08:46:48;2.40;;;1.10;;
23206;SDS011;11773;52.570;13.052;2023-03-13T08:49:18;1.23;;;0.90;;
23206;SDS011;11773;52.570;13.052;2023-03-13T08:51:47;2.03;;;0.90;;
23206;SDS011;11773;52.570;13.052;2023-03-13T08:54:17;1.63;;;1.00;;
23206;SDS011;11773;52.570;13.052;2023-03-13T08:56:46;1.73;;;1.00;;
23206;SDS011;11773;52.570;13.052;2023-03-13T08:59:16;3.20;;;1.17;;
23206;SDS011;11773;52.570;13.052;2023-03-13T09:01:45;2.00;;;1.13;;
23206;SDS011;11773;52.570;13.052;2023-03-13T09:04:15;2.03;;;0.97;;
23206;SDS011;11773;52.570;13.052;2023-03-13T09:06:45;2.07;;;1.10;;
23206;SDS011;11773;52.570;13.052;2023-03-13T09:09:14;1.93;;;1.10;;
23206;SDS011;11773;52.570;13.052;2023-03-13T09:11:44;3.77;;;1.30;;
23206;SDS011;11773;52.570;13.052;2023-03-13T09:14:13;2.30;;;1.20;;
23206;SDS011;11773;52.570;13.052;2023-03-13T09:16:43;2.13;;;1.23;;
23206;SDS011;11773;52.570;13.052;2023-03-13T09:19:14;1.97;;;1.10;;
23206;SDS011;11773;52.570;13.052;2023-03-13T09:21:43;2.97;;;1.10;;
23206;SDS011;11773;52.570;13.052;2023-03-13T09:24:15;2.40;;;0.93;;
23206;SDS011;11773;52.570;13.052;2023-03-13T09:26:45;1.00;;;0.60;;
23206;SDS011;11773;52.570;13.052;2023-03-13T09:29:17;1.30;;;0.80;;
23206;SDS011;11773;52.570;13.052;2023-03-13T09:31:46;2.77;;;1.20;;
23206;SDS011;11773;52.570;13.052;2023-03-13T09:34:16;1.67;;;1.00;;
23206;SDS011;11773;52.570;13.052;2023-03-13T09:36:45;1.93;;;0.80;;
23206;SDS011;11773;52.570;13.052;2023-03-13T09:39:15;2.63;;;1.00;;
23206;SDS011;11773;52.570;13.052;2023-03-13T09:41:56;2.17;;;0.77;;
23206;SDS011;11773;52.570;13.052;2023-03-13T09:47:32;2.80;;;1.20;;
23206;SDS011;11773;52.570;13.052;2023-03-13T09:50:24;1.20;;;0.70;;
23206;SDS011;11773;52.570;13.052;2023-03-13T09:52:56;3.00;;;1.20;;
23206;SDS011;11773;52.570;13.052;2023-03-13T09:55:35;1.87;;;1.00;;
23206;SDS011;11773;52.570;13.052;2023-03-13T09:58:10;2.20;;;1.30;;
23206;SDS011;11773;52.570;13.052;2023-03-13T10:00:48;1.90;;;0.83;;
23206;SDS011;11773;52.570;13.052;2023-03-13T10:03:38;0.67;;;0.50;;
23206;SDS011;11773;52.570;13.052;2023-03-13T10:06:13;2.07;;;1.10;;
23206;SDS011;11773;52.570;13.052;2023-03-13T10:08:50;1.00;;;0.70;;
23206;SDS011;11773;52.570;13.052;2023-03-13T10:11:24;1.67;;;1.17;;
23206;SDS011;11773;52.570;13.052;2023-03-13T10:14:12;2.50;;;1.00;;
23206;SDS011;11773;52.570;13.052;2023-03-13T10:17:04;1.13;;;0.73;;
23206;SDS011;11773;52.570;13.052;2023-03-13T10:19:47;0.83;;;0.70;;
23206;SDS011;11773;52.570;13.052;2023-03-13T10:22:27;0.93;;;0.47;;
23206;SDS011;11773;52.570;13.052;2023-03-13T10:24:59;0.80;;;0.57;;
23206;SDS011;11773;52.570;13.052;2023-03-13T10:27:54;1.37;;;0.93;;
23206;SDS011;11773;52.570;13.052;2023-03-13T10:30:25;1.93;;;1.20;;
23206;SDS011;11773;52.570;13.052;2023-03-13T10:33:15;1.63;;;1.00;;
23206;SDS011;11773;52.570;13.052;2023-03-13T10:35:41;2.23;;;1.00;;
23206;SDS011;11773;52.570;13.052;2023-03-13T10:38:19;1.13;;;0.90;;
23206;SDS011;11773;52.570;13.052;2023-03-13T10:40:57;1.27;;;0.90;;
23206;SDS011;11773;52.570;13.052;2023-03-13T10:43:30;1.73;;;0.90;;
23206;SDS011;11773;52.570;13.052;2023-03-13T10:46:00;1.43;;;0.60;;
23206;SDS011;11773;52.570;13.052;2023-03-13T10:48:30;1.43;;;0.63;;
23206;SDS011;11773;52.570;13.052;2023-03-13T10:51:04;1.30;;;0.80;;
23206;SDS011;11773;52.570;13.052;2023-03-13T10:53:38;1.20;;;0.40;;
23206;SDS011;11773;52.570;13.052;2023-03-13T10:56:09;0.57;;;0.57;;
23206;SDS011;11773;52.570;13.052;2023-03-13T10:58:44;0.80;;;0.70;;
23206;SDS011;11773;52.570;13.052;2023-03-13T11:01:18;0.60;;;0.60;;
23206;SDS011;11773;52.570;13.052;2023-03-13T11:03:58;0.80;;;0.70;;
23206;SDS011;11773;52.570;13.052;2023-03-13T11:06:31;0.77;;;0.50;;
23206;SDS011;11773;52.570;13.052;2023-03-13T11:09:17;1.20;;;0.50;;
23206;SDS011;11773;52.570;13.052;2023-03-13T11:11:53;0.80;;;0.60;;
23206;SDS011;11773;52.570;13.052;2023-03-13T11:14:22;0.50;;;0.47;;
23206;SDS011;11773;52.570;13.052;2023-03-13T11:16:54;0.83;;;0.70;;
23206;SDS011;11773;52.570;13.052;2023-03-13T11:19:54;0.60;;;0.60;;
23206;SDS011;11773;52.570;13.052;2023-03-13T11:22:32;0.80;;;0.60;;
23206;SDS011;11773;52.570;13.052;2023-03-13T11:25:47;0.60;;;0.60;;
23206;SDS011;11773;52.570;13.052;2023-03-13T11:30:59;0.70;;;0.50;;
23206;SDS011;11773;52.570;13.052;2023-03-13T11:36:35;1.03;;;0.57;;
23206;SDS011;11773;52.570;13.052;2023-03-13T11:39:30;0.70;;;0.40;;
23206;SDS011;11773;52.570;13.052;2023-03-13T11:42:03;0.60;;;0.40;;
23206;SDS011;11773;52.570;13.052;2023-03-13T11:45:07;1.10;;;0.80;;
23206;SDS011;11773;52.570;13.052;2023-03-13T11:47:59;1.10;;;0.80;;
23206;SDS011;11773;52.570;13.052;2023-03-13T11:51:05;1.10;;;0.67;;
23206;SDS011;11773;52.570;13.052;2023-03-13T11:54:20;0.30;;;0.30;;
23206;SDS011;11773;52.570;13.052;2023-03-13T11:56:49;1.50;;;0.60;;
23206;SDS011;11773;52.570;13.052;2023-03-13T11:59:34;0.80;;;0.50;;
23206;SDS011;11773;52.570;13.052;2023-03-13T12:02:27;0.77;;;0.40;;
23206;SDS011;11773;52.570;13.052;2023-03-13T12:05:03;0.93;;;0.50;;
23206;SDS011;11773;52.570;13.052;2023-03-13T12:07:49;0.53;;;0.40;;
23206;SDS011;11773;52.570;13.052;2023-03-13T12:10:36;0.40;;;0.40;;
23206;SDS011;11773;52.570;13.052;2023-03-13T12:13:18;0.53;;;0.40;;
23206;SDS011;11773;52.570;13.052;2023-03-13T12:16:11;0.30;;;0.30;;
23206;SDS011;11773;52.570;13.052;2023-03-13T12:18:43;1.13;;;0.40;;
23206;SDS011;11773;52.570;13.052;2023-03-13T12:21:22;0.60;;;0.60;;
23206;SDS011;11773;52.570;13.052;2023-03-13T12:24:28;0.40;;;0.40;;
23206;SDS011;11773;52.570;13.052;2023-03-13T12:29:56;0.47;;;0.40;;
23206;SDS011;11773;52.570;13.052;2023-03-13T12:32:50;0.50;;;0.50;;
23206;SDS011;11773;52.570;13.052;2023-03-13T12:35:22;0.57;;;0.57;;
23206;SDS011;11773;52.570;13.052;2023-03-13T12:38:04;0.43;;;0.43;;
23206;SDS011;11773;52.570;13.052;2023-03-13T12:40:46;0.60;;;0.60;;
23206;SDS011;11773;52.570;13.052;2023-03-13T12:43:39;0.50;;;0.40;;
23206;SDS011;11773;52.570;13.052;2023-03-13T12:49:38;1.10;;;0.90;;
23206;SDS011;11773;52.570;13.052;2023-03-13T12:55:27;0.67;;;0.63;;
23206;SDS011;11773;52.570;13.052;2023-03-13T12:58:36;0.60;;;0.60;;
23206;SDS011;11773;52.570;13.052;2023-03-13T13:01:38;1.30;;;0.53;;
23206;SDS011;11773;52.570;13.052;2023-03-13T13:04:11;0.50;;;0.50;;
23206;SDS011;11773;52.570;13.052;2023-03-13T13:06:57;0.60;;;0.60;;
23206;SDS011;11773;52.570;13.052;2023-03-13T13:09:37;0.77;;;0.50;;
23206;SDS011;11773;52.570;13.052;2023-03-13T13:12:20;0.50;;;0.50;;
23206;SDS011;11773;52.570;13.052;2023-03-13T13:20:46;0.60;;;0.60;;
23206;SDS011;11773;52.570;13.052;2023-03-13T13:23:20;0.70;;;0.70;;
23206;SDS011;11773;52.570;13.052;2023-03-13T13:25:56;0.50;;;0.50;;
23206;SDS011;11773;52.570;13.052;2023-03-13T13:28:55;0.70;;;0.40;;
23206;SDS011;11773;52.570;13.052;2023-03-13T13:31:44;0.77;;;0.60;;
23206;SDS011;11773;52.570;13.052;2023-03-13T13:37:02;0.30;;;0.30;;
23206;SDS011;11773;52.570;13.052;2023-03-13T13:39:44;0.57;;;0.57;;
23206;SDS011;11773;52.570;13.052;2023-03-13T13:42:45;0.33;;;0.33;;
23206;SDS011;11773;52.570;13.052;2023-03-13T13:48:12;0.60;;;0.60;;
23206;SDS011;11773;52.570;13.052;2023-03-13T13:51:41;0.97;;;0.50;;
23206;SDS011;11773;52.570;13.052;2023-03-13T13:53:44;0.30;;;0.30;;
23206;SDS011;11773;52.570;13.052;2023-03-13T14:04:46;0.50;;;0.50;;
23206;SDS011;11773;52.570;13.052;2023-03-13T14:07:45;0.40;;;0.40;;
23206;SDS011;11773;52.570;13.052;2023-03-13T14:10:30;0.73;;;0.50;;
23206;SDS011;11773;52.570;13.052;2023-03-13T14:15:49;0.30;;;0.30;;
23206;SDS011;11773;52.570;13.052;2023-03-13T14:18:23;0.50;;;0.40;;
23206;SDS011;11773;52.570;13.052;2023-03-13T14:20:56;0.40;;;0.40;;
23206;SDS011;11773;52.570;13.052;2023-03-13T14:23:37;0.60;;;0.60;;
23206;SDS011;11773;52.570;13.052;2023-03-13T14:28:53;0.83;;;0.50;;
23206;SDS011;11773;52.570;13.052;2023-03-13T14:34:06;0.63;;;0.47;;
23206;SDS011;11773;52.570;13.052;2023-03-13T14:36:54;1.43;;;0.50;;
23206;SDS011;11773;52.570;13.052;2023-03-13T14:39:41;0.97;;;0.47;;
23206;SDS011;11773;52.570;13.052;2023-03-13T14:42:15;0.47;;;0.47;;
23206;SDS011;11773;52.570;13.052;2023-03-13T14:44:46;0.50;;;0.50;;
23206;SDS011;11773;52.570;13.052;2023-03-13T14:47:26;0.73;;;0.57;;
23206;SDS011;11773;52.570;13.052;2023-03-13T14:50:02;0.30;;;0.30;;
23206;SDS011;11773;52.570;13.052;2023-03-13T14:52:34;0.53;;;0.50;;
23206;SDS011;11773;52.570;13.052;2023-03-13T14:55:06;0.40;;;0.40;;
23206;SDS011;11773;52.570;13.052;2023-03-13T15:00:38;0.30;;;0.30;;
23206;SDS011;11773;52.570;13.052;2023-03-13T15:08:41;0.57;;;0.40;;
23206;SDS011;11773;52.570;13.052;2023-03-13T15:11:40;0.77;;;0.60;;
23206;SDS011;11773;52.570;13.052;2023-03-13T15:14:30;0.40;;;0.40;;
23206;SDS011;11773;52.570;13.052;2023-03-13T15:17:15;0.90;;;0.60;;
23206;SDS011;11773;52.570;13.052;2023-03-13T15:19:53;0.40;;;0.40;;
23206;SDS011;11773;52.570;13.052;2023-03-13T15:22:28;1.03;;;0.70;;
23206;SDS011;11773;52.570;13.052;2023-03-13T15:25:01;0.80;;;0.73;;
23206;SDS011;11773;52.570;13.052;2023-03-13T15:27:34;0.50;;;0.50;;
23206;SDS011;11773;52.570;13.052;2023-03-13T15:30:04;0.50;;;0.30;;
23206;SDS011;11773;52.570;13.052;2023-03-13T15:32:37;1.07;;;0.47;;
23206;SDS011;11773;52.570;13.052;2023-03-13T15:35:20;0.27;;;0.27;;
23206;SDS011;11773;52.570;13.052;2023-03-13T15:37:59;0.50;;;0.50;;
23206;SDS011;11773;52.570;13.052;2023-03-13T15:40:29;0.30;;;0.30;;
23206;SDS011;11773;52.570;13.052;2023-03-13T15:42:59;0.70;;;0.40;;
23206;SDS011;11773;52.570;13.052;2023-03-13T15:45:28;0.40;;;0.40;;
23206;SDS011;11773;52.570;13.052;2023-03-13T15:47:59;0.43;;;0.43;;
23206;SDS011;11773;52.570;13.052;2023-03-13T15:50:28;0.40;;;0.40;;
23206;SDS011;11773;52.570;13.052;2023-03-13T15:52:58;0.53;;;0.50;;
23206;SDS011;11773;52.570;13.052;2023-03-13T15:55:28;0.20;;;0.20;;
23206;SDS011;11773;52.570;13.052;2023-03-13T15:57:57;0.30;;;0.30;;
23206;SDS011;11773;52.570;13.052;2023-03-13T16:02:56;0.30;;;0.30;;
23206;SDS011;11773;52.570;13.052;2023-03-13T16:08:17;0.40;;;0.40;;
23206;SDS011;11773;52.570;13.052;2023-03-13T16:10:54;0.50;;;0.50;;
23206;SDS011;11773;52.570;13.052;2023-03-13T16:15:59;0.93;;;0.30;;
23206;SDS011;11773;52.570;13.052;2023-03-13T16:18:28;0.30;;;0.30;;
23206;SDS011;11773;52.570;13.052;2023-03-13T16:20:58;0.40;;;0.30;;